sensor_id;sensor_type;location;lat;lon;timestamp;P1;durP1;ratioP1;P2;durP2;ratioP2
24685;SDS011;12804;51.176;4.452;2022-11-23T00:00:58;9.27;;;2.05;;
24685;SDS011;12804;51.176;4.452;2022-11-23T00:03:34;8.63;;;1.73;;
24685;SDS011;12804;51.176;4.452;2022-11-23T00:06:00;9.10;;;1.83;;
24685;SDS011;12804;51.176;4.452;2022-11-23T00:08:26;10.10;;;1.92;;
24685;SDS011;12804;51.176;4.452;2022-11-23T00:10:52;10.20;;;2.00;;
24685;SDS011;12804;51.176;4.452;2022-11-23T00:13:22;7.70;;;1.65;;
24685;SDS011;12804;51.176;4.452;2022-11-23T00:15:48;5.85;;;1.67;;
24685;SDS011;12804;51.176;4.452;2022-11-23T00:18:14;6.35;;;2.08;;
24685;SDS011;12804;51.176;4.452;2022-11-23T00:20:40;11.48;;;1.83;;
24685;SDS011;12804;51.176;4.452;2022-11-23T00:23:06;6.05;;;1.77;;
24685;SDS011;12804;51.176;4.452;2022-11-23T00:25:33;8.25;;;1.63;;
24685;SDS011;12804;51.176;4.452;2022-11-23T00:27:59;8.52;;;1.88;;
24685;SDS011;12804;51.176;4.452;2022-11-23T00:30:25;8.77;;;1.80;;
24685;SDS011;12804;51.176;4.452;2022-11-23T00:32:51;6.32;;;1.67;;
24685;SDS011;12804;51.176;4.452;2022-11-23T00:35:18;10.48;;;2.33;;
24685;SDS011;12804;51.176;4.452;2022-11-23T00:37:44;9.82;;;1.92;;
24685;SDS011;12804;51.176;4.452;2022-11-23T00:40:10;10.88;;;1.90;;
24685;SDS011;12804;51.176;4.452;2022-11-23T00:42:36;9.13;;;2.03;;
24685;SDS011;12804;51.176;4.452;2022-11-23T00:45:01;10.93;;;2.03;;
24685;SDS011;12804;51.176;4.452;2022-11-23T00:47:28;5.80;;;1.77;;
24685;SDS011;12804;51.176;4.452;2022-11-23T00:49:55;9.13;;;2.00;;
24685;SDS011;12804;51.176;4.452;2022-11-23T00:52:21;7.78;;;1.75;;
24685;SDS011;12804;51.176;4.452;2022-11-23T00:54:48;7.63;;;1.85;;
24685;SDS011;12804;51.176;4.452;2022-11-23T00:57:13;8.15;;;1.80;;
24685;SDS011;12804;51.176;4.452;2022-11-23T00:59:40;10.50;;;2.20;;
24685;SDS011;12804;51.176;4.452;2022-11-23T01:02:06;10.35;;;2.05;;
24685;SDS011;12804;51.176;4.452;2022-11-23T01:04:32;8.82;;;1.70;;
24685;SDS011;12804;51.176;4.452;2022-11-23T01:06:58;11.05;;;1.92;;
24685;SDS011;12804;51.176;4.452;2022-11-23T01:09:24;9.32;;;2.00;;
24685;SDS011;12804;51.176;4.452;2022-11-23T01:11:51;8.95;;;1.92;;
24685;SDS011;12804;51.176;4.452;2022-11-23T01:14:21;11.63;;;1.83;;
24685;SDS011;12804;51.176;4.452;2022-11-23T01:16:48;10.13;;;2.05;;
24685;SDS011;12804;51.176;4.452;2022-11-23T01:19:16;9.63;;;1.70;;
24685;SDS011;12804;51.176;4.452;2022-11-23T01:21:46;10.13;;;1.70;;
24685;SDS011;12804;51.176;4.452;2022-11-23T01:24:16;11.13;;;2.00;;
24685;SDS011;12804;51.176;4.452;2022-11-23T01:26:44;8.02;;;1.83;;
24685;SDS011;12804;51.176;4.452;2022-11-23T01:29:10;9.32;;;1.98;;
24685;SDS011;12804;51.176;4.452;2022-11-23T01:31:37;11.82;;;2.30;;
24685;SDS011;12804;51.176;4.452;2022-11-23T01:34:03;10.15;;;1.65;;
24685;SDS011;12804;51.176;4.452;2022-11-23T01:36:32;5.78;;;1.90;;
24685;SDS011;12804;51.176;4.452;2022-11-23T01:38:59;15.65;;;2.35;;
24685;SDS011;12804;51.176;4.452;2022-11-23T01:41:28;9.60;;;2.10;;
24685;SDS011;12804;51.176;4.452;2022-11-23T01:47:00;8.93;;;1.80;;
24685;SDS011;12804;51.176;4.452;2022-11-23T01:49:36;10.20;;;1.92;;
24685;SDS011;12804;51.176;4.452;2022-11-23T01:52:38;7.80;;;1.70;;
24685;SDS011;12804;51.176;4.452;2022-11-23T01:54:57;7.88;;;1.73;;
24685;SDS011;12804;51.176;4.452;2022-11-23T01:57:24;12.95;;;2.85;;
24685;SDS011;12804;51.176;4.452;2022-11-23T01:59:55;11.50;;;2.45;;
24685;SDS011;12804;51.176;4.452;2022-11-23T02:02:21;12.13;;;2.03;;
24685;SDS011;12804;51.176;4.452;2022-11-23T02:04:51;4.70;;;1.50;;
24685;SDS011;12804;51.176;4.452;2022-11-23T02:07:19;11.68;;;2.10;;
24685;SDS011;12804;51.176;4.452;2022-11-23T02:09:49;10.40;;;2.35;;
24685;SDS011;12804;51.176;4.452;2022-11-23T02:12:17;12.13;;;2.08;;
24685;SDS011;12804;51.176;4.452;2022-11-23T02:14:43;9.65;;;1.70;;
24685;SDS011;12804;51.176;4.452;2022-11-23T02:17:09;13.98;;;1.95;;
24685;SDS011;12804;51.176;4.452;2022-11-23T02:20:10;11.07;;;2.10;;
24685;SDS011;12804;51.176;4.452;2022-11-23T02:22:30;6.13;;;1.45;;
24685;SDS011;12804;51.176;4.452;2022-11-23T02:27:30;8.43;;;1.63;;
24685;SDS011;12804;51.176;4.452;2022-11-23T02:29:56;9.13;;;2.00;;
24685;SDS011;12804;51.176;4.452;2022-11-23T02:32:25;8.73;;;1.95;;
24685;SDS011;12804;51.176;4.452;2022-11-23T02:34:54;8.18;;;1.85;;
24685;SDS011;12804;51.176;4.452;2022-11-23T02:37:20;11.52;;;2.35;;
24685;SDS011;12804;51.176;4.452;2022-11-23T02:39:50;10.25;;;1.83;;
24685;SDS011;12804;51.176;4.452;2022-11-23T02:42:17;10.73;;;2.17;;
24685;SDS011;12804;51.176;4.452;2022-11-23T02:47:40;9.98;;;2.08;;
24685;SDS011;12804;51.176;4.452;2022-11-23T02:50:07;7.60;;;1.67;;
24685;SDS011;12804;51.176;4.452;2022-11-23T02:52:33;10.88;;;2.10;;
24685;SDS011;12804;51.176;4.452;2022-11-23T02:54:59;8.70;;;1.85;;
24685;SDS011;12804;51.176;4.452;2022-11-23T02:57:25;7.18;;;1.92;;
24685;SDS011;12804;51.176;4.452;2022-11-23T02:59:50;9.32;;;1.50;;
24685;SDS011;12804;51.176;4.452;2022-11-23T03:02:17;10.02;;;1.83;;
24685;SDS011;12804;51.176;4.452;2022-11-23T03:04:43;8.20;;;1.80;;
24685;SDS011;12804;51.176;4.452;2022-11-23T03:07:08;10.23;;;1.77;;
24685;SDS011;12804;51.176;4.452;2022-11-23T03:09:34;7.65;;;1.65;;
24685;SDS011;12804;51.176;4.452;2022-11-23T03:12:01;10.68;;;1.80;;
24685;SDS011;12804;51.176;4.452;2022-11-23T03:14:27;11.20;;;1.83;;
24685;SDS011;12804;51.176;4.452;2022-11-23T03:16:56;12.93;;;2.22;;
24685;SDS011;12804;51.176;4.452;2022-11-23T03:19:23;10.57;;;1.70;;
24685;SDS011;12804;51.176;4.452;2022-11-23T03:21:50;11.68;;;1.77;;
24685;SDS011;12804;51.176;4.452;2022-11-23T03:24:15;10.52;;;1.70;;
24685;SDS011;12804;51.176;4.452;2022-11-23T03:26:43;13.10;;;1.95;;
24685;SDS011;12804;51.176;4.452;2022-11-23T03:29:13;9.07;;;2.05;;
24685;SDS011;12804;51.176;4.452;2022-11-23T03:31:40;15.45;;;1.95;;
24685;SDS011;12804;51.176;4.452;2022-11-23T03:34:09;10.20;;;1.80;;
24685;SDS011;12804;51.176;4.452;2022-11-23T03:36:36;11.23;;;2.00;;
24685;SDS011;12804;51.176;4.452;2022-11-23T03:39:02;16.33;;;2.50;;
24685;SDS011;12804;51.176;4.452;2022-11-23T03:41:51;11.00;;;1.63;;
24685;SDS011;12804;51.176;4.452;2022-11-23T03:44:20;11.13;;;1.95;;
24685;SDS011;12804;51.176;4.452;2022-11-23T03:46:45;11.35;;;2.13;;
24685;SDS011;12804;51.176;4.452;2022-11-23T03:49:11;11.65;;;1.92;;
24685;SDS011;12804;51.176;4.452;2022-11-23T03:51:37;14.57;;;2.03;;
24685;SDS011;12804;51.176;4.452;2022-11-23T03:54:03;12.73;;;2.40;;
24685;SDS011;12804;51.176;4.452;2022-11-23T03:56:29;11.32;;;1.90;;
24685;SDS011;12804;51.176;4.452;2022-11-23T03:58:55;11.20;;;2.10;;
24685;SDS011;12804;51.176;4.452;2022-11-23T04:01:21;14.68;;;2.03;;
24685;SDS011;12804;51.176;4.452;2022-11-23T04:03:53;15.52;;;2.00;;
24685;SDS011;12804;51.176;4.452;2022-11-23T04:06:55;9.73;;;1.70;;
24685;SDS011;12804;51.176;4.452;2022-11-23T04:09:44;9.05;;;1.85;;
24685;SDS011;12804;51.176;4.452;2022-11-23T04:12:23;19.80;;;2.45;;
24685;SDS011;12804;51.176;4.452;2022-11-23T04:14:50;14.38;;;2.10;;
24685;SDS011;12804;51.176;4.452;2022-11-23T04:17:16;8.98;;;2.05;;
24685;SDS011;12804;51.176;4.452;2022-11-23T04:19:43;12.85;;;2.75;;
24685;SDS011;12804;51.176;4.452;2022-11-23T04:22:09;8.13;;;2.13;;
24685;SDS011;12804;51.176;4.452;2022-11-23T04:24:39;13.82;;;2.33;;
24685;SDS011;12804;51.176;4.452;2022-11-23T04:27:06;10.32;;;2.00;;
24685;SDS011;12804;51.176;4.452;2022-11-23T04:29:32;12.35;;;2.25;;
24685;SDS011;12804;51.176;4.452;2022-11-23T04:31:58;13.45;;;2.33;;
24685;SDS011;12804;51.176;4.452;2022-11-23T04:34:24;10.98;;;2.40;;
24685;SDS011;12804;51.176;4.452;2022-11-23T04:36:51;12.20;;;2.47;;
24685;SDS011;12804;51.176;4.452;2022-11-23T04:39:23;8.82;;;1.98;;
24685;SDS011;12804;51.176;4.452;2022-11-23T04:42:12;12.23;;;2.17;;
24685;SDS011;12804;51.176;4.452;2022-11-23T04:44:40;10.18;;;2.00;;
24685;SDS011;12804;51.176;4.452;2022-11-23T04:47:06;10.20;;;1.80;;
24685;SDS011;12804;51.176;4.452;2022-11-23T04:49:35;14.57;;;2.40;;
24685;SDS011;12804;51.176;4.452;2022-11-23T04:52:02;13.15;;;2.22;;
24685;SDS011;12804;51.176;4.452;2022-11-23T04:54:33;11.20;;;1.85;;
24685;SDS011;12804;51.176;4.452;2022-11-23T04:57:02;11.65;;;2.25;;
24685;SDS011;12804;51.176;4.452;2022-11-23T04:59:27;20.75;;;2.58;;
24685;SDS011;12804;51.176;4.452;2022-11-23T05:01:53;11.05;;;2.13;;
24685;SDS011;12804;51.176;4.452;2022-11-23T05:04:45;16.38;;;2.17;;
24685;SDS011;12804;51.176;4.452;2022-11-23T05:07:12;10.02;;;2.25;;
24685;SDS011;12804;51.176;4.452;2022-11-23T05:09:41;18.67;;;2.05;;
24685;SDS011;12804;51.176;4.452;2022-11-23T05:12:14;11.95;;;2.53;;
24685;SDS011;12804;51.176;4.452;2022-11-23T05:14:40;11.93;;;2.35;;
24685;SDS011;12804;51.176;4.452;2022-11-23T05:17:08;13.20;;;2.40;;
24685;SDS011;12804;51.176;4.452;2022-11-23T05:19:33;17.38;;;2.70;;
24685;SDS011;12804;51.176;4.452;2022-11-23T05:21:59;11.38;;;2.10;;
24685;SDS011;12804;51.176;4.452;2022-11-23T05:24:26;16.95;;;2.80;;
24685;SDS011;12804;51.176;4.452;2022-11-23T05:27:12;16.52;;;2.50;;
24685;SDS011;12804;51.176;4.452;2022-11-23T05:29:38;19.63;;;2.45;;
24685;SDS011;12804;51.176;4.452;2022-11-23T05:32:05;11.48;;;2.30;;
24685;SDS011;12804;51.176;4.452;2022-11-23T05:34:31;15.30;;;2.13;;
24685;SDS011;12804;51.176;4.452;2022-11-23T05:36:58;12.95;;;2.88;;
24685;SDS011;12804;51.176;4.452;2022-11-23T05:39:24;13.35;;;2.15;;
24685;SDS011;12804;51.176;4.452;2022-11-23T05:41:51;12.98;;;2.15;;
24685;SDS011;12804;51.176;4.452;2022-11-23T05:44:28;13.77;;;2.95;;
24685;SDS011;12804;51.176;4.452;2022-11-23T05:46:53;13.82;;;2.20;;
24685;SDS011;12804;51.176;4.452;2022-11-23T05:49:20;19.75;;;2.42;;
24685;SDS011;12804;51.176;4.452;2022-11-23T05:51:46;18.35;;;2.88;;
24685;SDS011;12804;51.176;4.452;2022-11-23T05:54:12;16.63;;;2.67;;
24685;SDS011;12804;51.176;4.452;2022-11-23T05:56:45;16.38;;;2.70;;
24685;SDS011;12804;51.176;4.452;2022-11-23T05:59:17;15.55;;;2.40;;
24685;SDS011;12804;51.176;4.452;2022-11-23T06:01:49;19.35;;;2.78;;
24685;SDS011;12804;51.176;4.452;2022-11-23T06:04:22;12.25;;;2.22;;
24685;SDS011;12804;51.176;4.452;2022-11-23T06:06:48;11.23;;;2.10;;
24685;SDS011;12804;51.176;4.452;2022-11-23T06:09:13;14.35;;;2.13;;
24685;SDS011;12804;51.176;4.452;2022-11-23T06:11:43;15.77;;;2.08;;
24685;SDS011;12804;51.176;4.452;2022-11-23T06:14:13;14.93;;;2.35;;
24685;SDS011;12804;51.176;4.452;2022-11-23T06:16:39;14.30;;;2.30;;
24685;SDS011;12804;51.176;4.452;2022-11-23T06:19:25;15.70;;;2.53;;
24685;SDS011;12804;51.176;4.452;2022-11-23T06:21:54;9.57;;;1.95;;
24685;SDS011;12804;51.176;4.452;2022-11-23T06:24:24;13.65;;;2.30;;
24685;SDS011;12804;51.176;4.452;2022-11-23T06:27:10;16.45;;;2.47;;
24685;SDS011;12804;51.176;4.452;2022-11-23T06:29:40;21.80;;;2.63;;
24685;SDS011;12804;51.176;4.452;2022-11-23T06:32:06;15.73;;;2.05;;
24685;SDS011;12804;51.176;4.452;2022-11-23T06:34:33;13.40;;;2.22;;
24685;SDS011;12804;51.176;4.452;2022-11-23T06:36:59;19.13;;;2.63;;
24685;SDS011;12804;51.176;4.452;2022-11-23T06:39:25;18.63;;;2.78;;
24685;SDS011;12804;51.176;4.452;2022-11-23T06:41:51;12.95;;;2.25;;
24685;SDS011;12804;51.176;4.452;2022-11-23T06:44:17;15.93;;;2.13;;
24685;SDS011;12804;51.176;4.452;2022-11-23T06:46:43;13.02;;;2.42;;
24685;SDS011;12804;51.176;4.452;2022-11-23T06:49:09;16.40;;;1.83;;
24685;SDS011;12804;51.176;4.452;2022-11-23T06:51:35;13.90;;;2.28;;
24685;SDS011;12804;51.176;4.452;2022-11-23T06:54:01;13.27;;;2.92;;
24685;SDS011;12804;51.176;4.452;2022-11-23T06:56:29;17.48;;;2.63;;
24685;SDS011;12804;51.176;4.452;2022-11-23T06:58:56;12.02;;;2.15;;
24685;SDS011;12804;51.176;4.452;2022-11-23T07:01:25;14.95;;;2.70;;
24685;SDS011;12804;51.176;4.452;2022-11-23T07:03:55;10.57;;;2.10;;
24685;SDS011;12804;51.176;4.452;2022-11-23T07:06:28;13.48;;;2.20;;
24685;SDS011;12804;51.176;4.452;2022-11-23T07:08:58;13.23;;;2.63;;
24685;SDS011;12804;51.176;4.452;2022-11-23T07:11:38;12.80;;;2.78;;
24685;SDS011;12804;51.176;4.452;2022-11-23T07:14:05;13.57;;;2.53;;
24685;SDS011;12804;51.176;4.452;2022-11-23T07:16:31;16.88;;;2.85;;
24685;SDS011;12804;51.176;4.452;2022-11-23T07:18:57;14.50;;;2.88;;
24685;SDS011;12804;51.176;4.452;2022-11-23T07:21:24;15.43;;;2.45;;
24685;SDS011;12804;51.176;4.452;2022-11-23T07:23:50;13.20;;;2.40;;
24685;SDS011;12804;51.176;4.452;2022-11-23T07:26:15;13.43;;;2.40;;
24685;SDS011;12804;51.176;4.452;2022-11-23T07:28:42;13.40;;;2.88;;
24685;SDS011;12804;51.176;4.452;2022-11-23T07:31:09;15.85;;;3.20;;
24685;SDS011;12804;51.176;4.452;2022-11-23T07:33:36;13.57;;;2.55;;
24685;SDS011;12804;51.176;4.452;2022-11-23T07:36:02;16.33;;;2.58;;
24685;SDS011;12804;51.176;4.452;2022-11-23T07:38:30;11.38;;;2.38;;
24685;SDS011;12804;51.176;4.452;2022-11-23T07:40:57;18.77;;;2.88;;
24685;SDS011;12804;51.176;4.452;2022-11-23T07:43:48;14.20;;;1.95;;
24685;SDS011;12804;51.176;4.452;2022-11-23T07:46:15;19.98;;;2.33;;
24685;SDS011;12804;51.176;4.452;2022-11-23T07:48:41;15.05;;;2.55;;
24685;SDS011;12804;51.176;4.452;2022-11-23T07:51:06;10.90;;;2.05;;
24685;SDS011;12804;51.176;4.452;2022-11-23T07:53:32;12.98;;;2.47;;
24685;SDS011;12804;51.176;4.452;2022-11-23T07:56:00;13.40;;;2.47;;
24685;SDS011;12804;51.176;4.452;2022-11-23T07:58:26;11.88;;;2.20;;
24685;SDS011;12804;51.176;4.452;2022-11-23T08:00:52;11.10;;;2.22;;
24685;SDS011;12804;51.176;4.452;2022-11-23T08:03:18;12.55;;;2.30;;
24685;SDS011;12804;51.176;4.452;2022-11-23T08:05:44;15.38;;;2.78;;
24685;SDS011;12804;51.176;4.452;2022-11-23T08:08:11;13.68;;;2.10;;
24685;SDS011;12804;51.176;4.452;2022-11-23T08:10:36;12.73;;;2.60;;
24685;SDS011;12804;51.176;4.452;2022-11-23T08:13:03;12.63;;;2.35;;
24685;SDS011;12804;51.176;4.452;2022-11-23T08:15:30;12.13;;;2.25;;
24685;SDS011;12804;51.176;4.452;2022-11-23T08:17:57;11.90;;;2.13;;
24685;SDS011;12804;51.176;4.452;2022-11-23T08:20:24;16.30;;;2.80;;
24685;SDS011;12804;51.176;4.452;2022-11-23T08:22:51;11.05;;;2.33;;
24685;SDS011;12804;51.176;4.452;2022-11-23T08:25:23;12.35;;;2.47;;
24685;SDS011;12804;51.176;4.452;2022-11-23T08:27:53;16.05;;;2.97;;
24685;SDS011;12804;51.176;4.452;2022-11-23T08:30:23;8.38;;;2.45;;
24685;SDS011;12804;51.176;4.452;2022-11-23T08:32:50;16.92;;;2.50;;
24685;SDS011;12804;51.176;4.452;2022-11-23T08:35:16;15.15;;;2.53;;
24685;SDS011;12804;51.176;4.452;2022-11-23T08:37:42;20.58;;;2.35;;
24685;SDS011;12804;51.176;4.452;2022-11-23T08:40:08;10.38;;;1.65;;
24685;SDS011;12804;51.176;4.452;2022-11-23T08:42:34;15.30;;;2.63;;
24685;SDS011;12804;51.176;4.452;2022-11-23T08:45:00;10.90;;;2.60;;
24685;SDS011;12804;51.176;4.452;2022-11-23T08:47:27;13.30;;;2.95;;
24685;SDS011;12804;51.176;4.452;2022-11-23T08:49:53;7.53;;;2.13;;
24685;SDS011;12804;51.176;4.452;2022-11-23T08:52:19;11.00;;;2.63;;
24685;SDS011;12804;51.176;4.452;2022-11-23T08:54:45;16.33;;;2.60;;
24685;SDS011;12804;51.176;4.452;2022-11-23T08:57:10;10.32;;;2.50;;
24685;SDS011;12804;51.176;4.452;2022-11-23T08:59:36;11.15;;;3.08;;
24685;SDS011;12804;51.176;4.452;2022-11-23T09:02:02;10.82;;;2.30;;
24685;SDS011;12804;51.176;4.452;2022-11-23T09:04:28;12.57;;;2.70;;
24685;SDS011;12804;51.176;4.452;2022-11-23T09:06:55;11.93;;;2.55;;
24685;SDS011;12804;51.176;4.452;2022-11-23T09:09:21;8.10;;;2.30;;
24685;SDS011;12804;51.176;4.452;2022-11-23T09:11:47;7.80;;;2.40;;
24685;SDS011;12804;51.176;4.452;2022-11-23T09:14:13;13.82;;;2.83;;
24685;SDS011;12804;51.176;4.452;2022-11-23T09:16:39;14.98;;;3.25;;
24685;SDS011;12804;51.176;4.452;2022-11-23T09:19:05;10.15;;;2.33;;
24685;SDS011;12804;51.176;4.452;2022-11-23T09:21:32;10.20;;;2.42;;
24685;SDS011;12804;51.176;4.452;2022-11-23T09:24:00;7.10;;;1.95;;
24685;SDS011;12804;51.176;4.452;2022-11-23T09:26:26;10.73;;;2.38;;
24685;SDS011;12804;51.176;4.452;2022-11-23T09:28:52;11.52;;;2.72;;
24685;SDS011;12804;51.176;4.452;2022-11-23T09:31:17;11.95;;;2.65;;
24685;SDS011;12804;51.176;4.452;2022-11-23T09:33:43;9.43;;;2.22;;
24685;SDS011;12804;51.176;4.452;2022-11-23T09:36:09;9.85;;;2.45;;
24685;SDS011;12804;51.176;4.452;2022-11-23T09:38:35;10.95;;;2.70;;
24685;SDS011;12804;51.176;4.452;2022-11-23T09:52:35;14.07;;;2.88;;
24685;SDS011;12804;51.176;4.452;2022-11-23T09:57:55;7.43;;;2.17;;
24685;SDS011;12804;51.176;4.452;2022-11-23T10:00:26;9.05;;;2.40;;
24685;SDS011;12804;51.176;4.452;2022-11-23T10:02:59;7.28;;;2.20;;
24685;SDS011;12804;51.176;4.452;2022-11-23T10:05:25;9.85;;;1.90;;
24685;SDS011;12804;51.176;4.452;2022-11-23T10:08:03;10.82;;;2.13;;
24685;SDS011;12804;51.176;4.452;2022-11-23T10:10:44;5.30;;;1.70;;
24685;SDS011;12804;51.176;4.452;2022-11-23T10:16:12;8.55;;;2.42;;
24685;SDS011;12804;51.176;4.452;2022-11-23T10:26:33;6.10;;;1.98;;
24685;SDS011;12804;51.176;4.452;2022-11-23T10:29:24;8.05;;;1.98;;
24685;SDS011;12804;51.176;4.452;2022-11-23T10:31:57;9.68;;;2.17;;
24685;SDS011;12804;51.176;4.452;2022-11-23T10:37:11;6.05;;;1.40;;
24685;SDS011;12804;51.176;4.452;2022-11-23T10:39:37;7.40;;;1.30;;
24685;SDS011;12804;51.176;4.452;2022-11-23T10:42:10;8.20;;;1.75;;
24685;SDS011;12804;51.176;4.452;2022-11-23T10:44:50;7.43;;;1.77;;
24685;SDS011;12804;51.176;4.452;2022-11-23T10:47:37;7.03;;;1.40;;
24685;SDS011;12804;51.176;4.452;2022-11-23T10:50:20;4.35;;;1.58;;
24685;SDS011;12804;51.176;4.452;2022-11-23T10:52:59;8.77;;;1.65;;
24685;SDS011;12804;51.176;4.452;2022-11-23T10:55:47;8.48;;;1.40;;
24685;SDS011;12804;51.176;4.452;2022-11-23T10:58:26;6.10;;;1.40;;
24685;SDS011;12804;51.176;4.452;2022-11-23T11:01:04;6.13;;;1.85;;
24685;SDS011;12804;51.176;4.452;2022-11-23T11:03:32;5.07;;;1.35;;
24685;SDS011;12804;51.176;4.452;2022-11-23T11:05:59;2.78;;;0.90;;
24685;SDS011;12804;51.176;4.452;2022-11-23T11:08:30;5.32;;;1.30;;
24685;SDS011;12804;51.176;4.452;2022-11-23T11:11:07;3.17;;;1.27;;
24685;SDS011;12804;51.176;4.452;2022-11-23T11:13:45;4.32;;;1.25;;
24685;SDS011;12804;51.176;4.452;2022-11-23T11:16:20;6.72;;;2.00;;
24685;SDS011;12804;51.176;4.452;2022-11-23T11:18:52;4.85;;;1.15;;
24685;SDS011;12804;51.176;4.452;2022-11-23T11:21:19;6.38;;;1.20;;
24685;SDS011;12804;51.176;4.452;2022-11-23T11:24:13;5.70;;;1.30;;
24685;SDS011;12804;51.176;4.452;2022-11-23T11:26:48;4.75;;;1.10;;
24685;SDS011;12804;51.176;4.452;2022-11-23T11:29:30;3.03;;;1.20;;
24685;SDS011;12804;51.176;4.452;2022-11-23T11:32:14;6.50;;;1.55;;
24685;SDS011;12804;51.176;4.452;2022-11-23T11:34:44;3.83;;;1.20;;
24685;SDS011;12804;51.176;4.452;2022-11-23T11:45:30;6.97;;;1.52;;
24685;SDS011;12804;51.176;4.452;2022-11-23T11:50:47;5.93;;;1.30;;
24685;SDS011;12804;51.176;4.452;2022-11-23T11:56:03;5.50;;;1.50;;
24685;SDS011;12804;51.176;4.452;2022-11-23T11:58:39;3.58;;;1.10;;
24685;SDS011;12804;51.176;4.452;2022-11-23T12:01:20;4.47;;;1.00;;
24685;SDS011;12804;51.176;4.452;2022-11-23T12:03:56;5.30;;;1.00;;
24685;SDS011;12804;51.176;4.452;2022-11-23T12:06:34;5.65;;;1.45;;
24685;SDS011;12804;51.176;4.452;2022-11-23T12:12:07;6.13;;;1.17;;
24685;SDS011;12804;51.176;4.452;2022-11-23T12:14:38;6.80;;;1.60;;
24685;SDS011;12804;51.176;4.452;2022-11-23T12:25:26;8.63;;;1.52;;
24685;SDS011;12804;51.176;4.452;2022-11-23T12:44:37;6.68;;;1.38;;
24685;SDS011;12804;51.176;4.452;2022-11-23T12:55:53;3.83;;;1.10;;
24685;SDS011;12804;51.176;4.452;2022-11-23T12:58:36;3.50;;;1.10;;
24685;SDS011;12804;51.176;4.452;2022-11-23T13:01:11;8.13;;;1.52;;
24685;SDS011;12804;51.176;4.452;2022-11-23T13:10:01;6.20;;;1.10;;
24685;SDS011;12804;51.176;4.452;2022-11-23T13:14:51;7.03;;;1.40;;
24685;SDS011;12804;51.176;4.452;2022-11-23T13:20:11;4.50;;;1.50;;
24685;SDS011;12804;51.176;4.452;2022-11-23T13:22:45;5.78;;;2.00;;
24685;SDS011;12804;51.176;4.452;2022-11-23T13:27:45;7.18;;;1.63;;
24685;SDS011;12804;51.176;4.452;2022-11-23T13:32:51;4.40;;;1.40;;
24685;SDS011;12804;51.176;4.452;2022-11-23T13:40:28;2.30;;;1.40;;
24685;SDS011;12804;51.176;4.452;2022-11-23T13:43:28;7.70;;;1.83;;
24685;SDS011;12804;51.176;4.452;2022-11-23T13:46:07;5.70;;;1.70;;
24685;SDS011;12804;51.176;4.452;2022-11-23T13:48:40;5.20;;;1.50;;
24685;SDS011;12804;51.176;4.452;2022-11-23T13:51:08;6.05;;;1.50;;
24685;SDS011;12804;51.176;4.452;2022-11-23T13:53:35;10.18;;;1.75;;
24685;SDS011;12804;51.176;4.452;2022-11-23T14:04:40;4.40;;;1.35;;
24685;SDS011;12804;51.176;4.452;2022-11-23T14:15:02;3.85;;;1.23;;
24685;SDS011;12804;51.176;4.452;2022-11-23T14:23:07;3.08;;;1.20;;
24685;SDS011;12804;51.176;4.452;2022-11-23T14:40:29;4.60;;;1.67;;
24685;SDS011;12804;51.176;4.452;2022-11-23T14:43:12;5.57;;;1.60;;
24685;SDS011;12804;51.176;4.452;2022-11-23T14:45:43;3.90;;;1.50;;
24685;SDS011;12804;51.176;4.452;2022-11-23T14:53:34;3.28;;;1.30;;
24685;SDS011;12804;51.176;4.452;2022-11-23T14:56:04;4.93;;;1.58;;
24685;SDS011;12804;51.176;4.452;2022-11-23T14:58:31;7.40;;;1.50;;
24685;SDS011;12804;51.176;4.452;2022-11-23T15:01:00;4.18;;;1.52;;
24685;SDS011;12804;51.176;4.452;2022-11-23T15:03:28;3.25;;;1.75;;
24685;SDS011;12804;51.176;4.452;2022-11-23T15:06:00;4.18;;;1.42;;
24685;SDS011;12804;51.176;4.452;2022-11-23T15:08:45;3.35;;;1.40;;
24685;SDS011;12804;51.176;4.452;2022-11-23T15:11:32;5.85;;;1.80;;
24685;SDS011;12804;51.176;4.452;2022-11-23T15:14:00;9.20;;;1.80;;
24685;SDS011;12804;51.176;4.452;2022-11-23T15:16:26;6.80;;;1.90;;
24685;SDS011;12804;51.176;4.452;2022-11-23T15:18:52;5.05;;;1.45;;
24685;SDS011;12804;51.176;4.452;2022-11-23T15:21:19;2.25;;;1.50;;
24685;SDS011;12804;51.176;4.452;2022-11-23T15:23:48;3.90;;;1.25;;
24685;SDS011;12804;51.176;4.452;2022-11-23T15:28:51;4.50;;;1.50;;
24685;SDS011;12804;51.176;4.452;2022-11-23T15:31:17;3.88;;;1.48;;
24685;SDS011;12804;51.176;4.452;2022-11-23T15:33:56;3.83;;;1.58;;
24685;SDS011;12804;51.176;4.452;2022-11-23T15:36:25;6.38;;;1.63;;
24685;SDS011;12804;51.176;4.452;2022-11-23T15:38:55;6.03;;;2.05;;
24685;SDS011;12804;51.176;4.452;2022-11-23T15:41:23;5.82;;;1.92;;
24685;SDS011;12804;51.176;4.452;2022-11-23T15:43:51;3.75;;;1.70;;
24685;SDS011;12804;51.176;4.452;2022-11-23T15:46:21;2.25;;;1.50;;
24685;SDS011;12804;51.176;4.452;2022-11-23T15:48:49;3.42;;;1.50;;
24685;SDS011;12804;51.176;4.452;2022-11-23T15:51:27;3.85;;;1.70;;
24685;SDS011;12804;51.176;4.452;2022-11-23T15:54:02;5.25;;;1.70;;
24685;SDS011;12804;51.176;4.452;2022-11-23T15:56:32;3.35;;;1.60;;
24685;SDS011;12804;51.176;4.452;2022-11-23T15:59:01;2.33;;;1.30;;
24685;SDS011;12804;51.176;4.452;2022-11-23T16:01:29;2.78;;;1.60;;
24685;SDS011;12804;51.176;4.452;2022-11-23T16:03:56;2.40;;;1.63;;
24685;SDS011;12804;51.176;4.452;2022-11-23T16:08:56;4.53;;;1.80;;
24685;SDS011;12804;51.176;4.452;2022-11-23T16:11:32;5.78;;;2.08;;
24685;SDS011;12804;51.176;4.452;2022-11-23T16:14:09;3.40;;;1.92;;
24685;SDS011;12804;51.176;4.452;2022-11-23T16:16:38;7.60;;;2.10;;
24685;SDS011;12804;51.176;4.452;2022-11-23T16:19:05;6.90;;;2.30;;
24685;SDS011;12804;51.176;4.452;2022-11-23T16:24:16;4.15;;;1.90;;
24685;SDS011;12804;51.176;4.452;2022-11-23T16:26:45;4.73;;;2.37;;
24685;SDS011;12804;51.176;4.452;2022-11-23T16:29:18;4.53;;;2.00;;
24685;SDS011;12804;51.176;4.452;2022-11-23T16:31:53;3.22;;;2.20;;
24685;SDS011;12804;51.176;4.452;2022-11-23T16:34:24;7.22;;;2.80;;
24685;SDS011;12804;51.176;4.452;2022-11-23T16:36:54;5.35;;;2.47;;
24685;SDS011;12804;51.176;4.452;2022-11-23T16:39:23;8.05;;;2.95;;
24685;SDS011;12804;51.176;4.452;2022-11-23T16:41:50;6.85;;;2.58;;
24685;SDS011;12804;51.176;4.452;2022-11-23T16:44:17;5.50;;;2.63;;
24685;SDS011;12804;51.176;4.452;2022-11-23T16:46:45;5.95;;;2.53;;
24685;SDS011;12804;51.176;4.452;2022-11-23T16:49:18;6.25;;;2.42;;
24685;SDS011;12804;51.176;4.452;2022-11-23T16:51:47;9.30;;;3.03;;
24685;SDS011;12804;51.176;4.452;2022-11-23T16:54:18;7.70;;;3.45;;
24685;SDS011;12804;51.176;4.452;2022-11-23T16:56:44;7.80;;;3.55;;
24685;SDS011;12804;51.176;4.452;2022-11-23T16:59:16;8.32;;;3.22;;
24685;SDS011;12804;51.176;4.452;2022-11-23T17:01:44;6.93;;;2.65;;
24685;SDS011;12804;51.176;4.452;2022-11-23T17:04:15;8.95;;;2.58;;
24685;SDS011;12804;51.176;4.452;2022-11-23T17:06:42;7.50;;;2.90;;
24685;SDS011;12804;51.176;4.452;2022-11-23T17:09:08;8.50;;;2.90;;
24685;SDS011;12804;51.176;4.452;2022-11-23T17:11:36;10.43;;;2.72;;
24685;SDS011;12804;51.176;4.452;2022-11-23T17:14:06;7.82;;;2.55;;
24685;SDS011;12804;51.176;4.452;2022-11-23T17:16:34;5.53;;;3.22;;
24685;SDS011;12804;51.176;4.452;2022-11-23T17:19:00;7.35;;;3.28;;
24685;SDS011;12804;51.176;4.452;2022-11-23T17:21:26;8.32;;;3.42;;
24685;SDS011;12804;51.176;4.452;2022-11-23T17:23:51;11.23;;;4.07;;
24685;SDS011;12804;51.176;4.452;2022-11-23T17:29:00;10.73;;;4.07;;
24685;SDS011;12804;51.176;4.452;2022-11-23T17:31:28;7.78;;;3.65;;
24685;SDS011;12804;51.176;4.452;2022-11-23T17:33:55;9.95;;;3.78;;
24685;SDS011;12804;51.176;4.452;2022-11-23T17:36:21;7.57;;;4.10;;